Time;durP1;ratioP1;P1;durP2;ratioP2;P2;SDS_P1;SDS_P2;PMS_P1;PMS_P2;Temp;Humidity;BMP_temperature;BMP_pressure;BME280_temperature;BME280_humidity;BME280_pressure;Samples;Min_cycle;Max_cycle;Signal;HPM_P1;HPM_P2
2022/04/16 00:01:27;;;;;;;37.50;18.67;;;;;;;7.52;100.00;102956.88;5197271;28;20025;-72
2022/04/16 00:03:57;;;;;;;40.00;18.55;;;;;;;7.50;100.00;102954.31;5203951;28;20032;-73
2022/04/16 00:06:27;;;;;;;42.25;20.38;;;;;;;7.49;100.00;102947.25;5205833;28;20029;-72
2022/04/16 00:08:58;;;;;;;35.45;18.70;;;;;;;7.51;100.00;102952.50;5205685;28;20026;-72
2022/04/16 00:11:29;;;;;;;38.72;18.95;;;;;;;7.51;100.00;102947.16;5205509;28;20025;-72
2022/04/16 00:13:59;;;;;;;36.50;18.67;;;;;;;7.52;100.00;102944.38;5205425;28;20083;-72
2022/04/16 00:16:30;;;;;;;34.35;18.40;;;;;;;7.52;100.00;102949.72;5204547;28;20029;-71
2022/04/16 00:19:00;;;;;;;38.25;17.80;;;;;;;7.51;100.00;102952.50;5205368;28;20172;-72
2022/04/16 00:21:31;;;;;;;33.92;18.13;;;;;;;7.51;100.00;102947.16;5205575;28;20025;-71
2022/04/16 00:24:01;;;;;;;37.15;18.05;;;;;;;7.50;100.00;102946.28;5205187;28;20025;-70
2022/04/16 00:26:32;;;;;;;35.15;18.35;;;;;;;7.50;100.00;102953.44;5204381;28;20026;-71
2022/04/16 00:29:02;;;;;;;33.00;17.15;;;;;;;7.50;100.00;102948.09;5204792;28;20061;-72
2022/04/16 00:31:34;;;;;;;33.72;18.23;;;;;;;7.47;100.00;102943.78;5205258;28;20058;-72
2022/04/16 00:34:05;;;;;;;33.97;17.25;;;;;;;7.46;100.00;102947.44;5205024;28;20044;-71
2022/04/16 00:36:35;;;;;;;30.27;17.20;;;;;;;7.46;100.00;102952.75;5204557;28;20017;-71
2022/04/16 00:39:06;;;;;;;35.28;17.42;;;;;;;7.46;100.00;102952.75;5203581;28;20037;-73
2022/04/16 00:41:37;;;;;;;35.53;17.27;;;;;;;7.47;100.00;102953.63;5193142;28;20103;-71
2022/04/16 00:44:07;;;;;;;39.25;19.10;;;;;;;7.46;100.00;102949.25;5204769;28;20097;-71
2022/04/16 00:46:38;;;;;;;30.58;16.85;;;;;;;7.45;100.00;102952.88;5204766;28;20025;-72
2022/04/16 00:49:08;;;;;;;39.13;17.92;;;;;;;7.45;100.00;102953.72;5204542;28;20018;-72
2022/04/16 00:51:39;;;;;;;35.03;18.17;;;;;;;7.41;100.00;102954.88;5203166;28;20032;-72
2022/04/16 00:54:10;;;;;;;36.90;18.13;;;;;;;7.38;100.00;102954.19;5204164;28;20038;-72
2022/04/16 00:56:42;;;;;;;39.25;18.25;;;;;;;7.37;100.00;102953.31;5204590;28;20022;-72
2022/04/16 00:59:12;;;;;;;36.97;18.55;;;;;;;7.37;100.00;102956.00;5202827;28;20028;-72
2022/04/16 01:01:43;;;;;;;32.28;16.90;;;;;;;7.35;100.00;102957.91;5198186;28;20025;-72
2022/04/16 01:04:13;;;;;;;33.05;17.63;;;;;;;7.33;100.00;102964.28;5204055;28;20053;-72
2022/04/16 01:06:48;;;;;;;35.13;16.38;;;;;;;7.28;100.00;102967.28;5204581;28;20415;-72
2022/04/16 01:09:33;;;;;;;32.33;18.23;;;;;;;7.27;100.00;102965.53;5204271;28;20141;-72
2022/04/16 01:12:05;;;;;;;33.65;17.90;;;;;;;7.24;100.00;102963.06;5204246;28;20382;-72
2022/04/16 01:14:38;;;;;;;33.20;17.70;;;;;;;7.20;100.00;102961.53;5203262;28;20061;-72
2022/04/16 01:17:09;;;;;;;32.20;17.73;;;;;;;7.19;100.00;102965.16;5204392;28;20362;-71
2022/04/16 01:19:41;;;;;;;35.45;18.55;;;;;;;7.12;100.00;102969.97;5204240;28;20056;-72
2022/04/16 01:22:14;;;;;;;32.63;16.58;;;;;;;7.09;100.00;102972.84;5204521;28;20100;-71
2022/04/16 01:24:48;;;;;;;29.77;16.90;;;;;;;7.06;100.00;102973.03;5203600;28;20033;-72
2022/04/16 01:27:19;;;;;;;32.75;17.38;;;;;;;7.03;100.00;102969.66;5203429;28;20029;-72
2022/04/16 01:29:50;;;;;;;33.58;16.75;;;;;;;7.00;100.00;102973.38;5204122;28;20108;-72
2022/04/16 01:32:20;;;;;;;33.65;17.48;;;;;;;7.01;100.00;102969.78;5204200;28;20109;-72
2022/04/16 01:34:51;;;;;;;35.83;17.45;;;;;;;6.97;100.00;102965.56;5203672;28;20017;-72
2022/04/16 01:37:23;;;;;;;34.60;18.20;;;;;;;6.93;100.00;102966.72;5190318;28;20029;-72
2022/04/16 01:39:54;;;;;;;35.47;19.45;;;;;;;6.90;100.00;102970.41;5195850;28;20491;-71
2022/04/16 01:42:25;;;;;;;34.03;18.42;;;;;;;6.89;100.00;102966.03;5198475;28;20033;-71
2022/04/16 01:44:56;;;;;;;38.20;19.35;;;;;;;6.88;100.00;102971.47;5203537;28;20025;-72
2022/04/16 01:47:28;;;;;;;34.75;17.48;;;;;;;6.86;100.00;102971.53;5204006;28;20095;-72
2022/04/16 01:49:59;;;;;;;32.65;17.55;;;;;;;6.85;100.00;102968.97;5204414;28;20329;-72
2022/04/16 01:52:37;;;;;;;35.65;18.10;;;;;;;6.83;100.00;102970.84;5203916;28;20029;-71
2022/04/16 01:55:09;;;;;;;34.65;17.52;;;;;;;6.80;100.00;102961.22;5203453;28;20108;-71
2022/04/16 01:57:45;;;;;;;37.10;18.45;;;;;;;6.79;100.00;102966.66;5203817;28;20032;-72
2022/04/16 02:00:16;;;;;;;35.15;17.63;;;;;;;6.77;100.00;102966.72;5194441;28;20376;-71
2022/04/16 02:02:47;;;;;;;35.47;18.05;;;;;;;6.77;100.00;102971.22;5203300;28;20060;-72
2022/04/16 02:05:22;;;;;;;35.70;17.63;;;;;;;6.74;100.00;102972.25;5202840;28;20029;-72
2022/04/16 02:07:54;;;;;;;35.10;18.45;;;;;;;6.68;100.00;102964.63;5203489;28;20483;-72
2022/04/16 02:10:24;;;;;;;36.47;17.63;;;;;;;6.68;100.00;102976.16;5203016;28;20029;-71
2022/04/16 02:12:55;;;;;;;34.22;17.85;;;;;;;6.67;100.00;102968.22;5202818;28;20029;-71
2022/04/16 02:15:27;;;;;;;33.60;18.05;;;;;;;6.67;100.00;102968.22;5202971;28;20025;-71
2022/04/16 02:17:58;;;;;;;36.22;18.30;;;;;;;6.68;100.00;102965.47;5203723;28;20022;-71
2022/04/16 02:20:29;;;;;;;39.75;19.02;;;;;;;6.69;100.00;102964.53;5203129;28;20040;-71
2022/04/16 02:22:59;;;;;;;36.70;18.05;;;;;;;6.63;100.00;102969.38;5203181;28;20022;-72
2022/04/16 02:25:30;;;;;;;36.55;18.25;;;;;;;6.60;100.00;102967.72;5202579;28;20087;-72
2022/04/16 02:28:01;;;;;;;35.85;18.05;;;;;;;6.58;100.00;102964.31;5203040;28;20021;-71
2022/04/16 02:30:31;;;;;;;37.80;17.73;;;;;;;6.56;100.00;102970.66;5203329;28;20487;-71
2022/04/16 02:33:02;;;;;;;38.15;18.45;;;;;;;6.52;100.00;102967.28;5203178;28;20037;-71
2022/04/16 02:35:32;;;;;;;38.63;19.35;;;;;;;6.48;100.00;102971.09;5203147;28;20017;-70
2022/04/16 02:38:03;;;;;;;37.88;18.70;;;;;;;6.45;100.00;102977.47;5202667;28;20103;-70
2022/04/16 02:40:33;;;;;;;34.20;18.45;;;;;;;6.41;100.00;102975.06;5202641;28;20017;-70
2022/04/16 02:43:04;;;;;;;37.60;19.33;;;;;;;6.37;100.00;102981.50;5203096;28;20021;-71
2022/04/16 02:48:23;;;;;;;41.97;19.95;;;;;;;6.25;100.00;102979.53;5202844;28;20387;-71
2022/04/16 02:50:54;;;;;;;38.40;18.98;;;;;;;6.21;100.00;102989.50;5201824;28;20029;-71
2022/04/16 02:53:26;;;;;;;40.95;19.33;;;;;;;6.12;100.00;102993.53;5202978;28;20018;-70
2022/04/16 02:55:56;;;;;;;37.47;19.75;;;;;;;6.07;100.00;102984.94;5202651;28;20033;-70
2022/04/16 02:58:27;;;;;;;36.70;19.45;;;;;;;6.04;100.00;102989.59;5202863;28;20021;-71
2022/04/16 03:00:57;;;;;;;36.90;19.67;;;;;;;6.01;100.00;102987.94;5194369;28;20437;-70
2022/04/16 03:03:29;;;;;;;41.25;21.40;;;;;;;5.97;100.00;102991.72;5202668;28;20103;-70
2022/04/16 03:05:59;;;;;;;44.55;20.55;;;;;;;5.94;100.00;102998.09;5202360;28;20552;-72
2022/04/16 03:08:30;;;;;;;42.50;20.38;;;;;;;5.90;100.00;102995.63;5202711;28;20083;-70
2022/04/16 03:11:01;;;;;;;40.97;20.92;;;;;;;5.89;100.00;102991.25;5202533;28;20039;-71
2022/04/16 03:19:06;;;;;;;40.63;21.17;;;;;;;5.81;100.00;102993.47;5202811;28;20060;-70
2022/04/16 03:21:36;;;;;;;43.92;20.90;;;;;;;5.79;100.00;102992.72;5202353;28;20060;-71
2022/04/16 03:24:07;;;;;;;51.40;21.38;;;;;;;5.75;100.00;102992.00;5202483;28;20105;-71
2022/04/16 03:26:37;;;;;;;38.40;20.98;;;;;;;5.72;100.00;102990.38;5202298;28;20479;-70
2022/04/16 03:29:08;;;;;;;49.40;22.10;;;;;;;5.74;100.00;102989.44;5202802;28;20507;-70
2022/04/16 03:31:38;;;;;;;50.88;22.58;;;;;;;5.73;100.00;102991.25;5202445;28;20021;-70
2022/04/16 03:34:08;;;;;;;44.05;21.48;;;;;;;5.71;100.00;102998.44;5201799;28;20033;-70
2022/04/16 03:36:39;;;;;;;46.20;21.73;;;;;;;5.71;100.00;102991.28;5194323;28;20351;-69
2022/04/16 03:39:09;;;;;;;44.50;19.98;;;;;;;5.68;100.00;102991.47;5200080;28;20028;-70
2022/04/16 03:41:40;;;;;;;43.97;21.77;;;;;;;5.66;100.00;102997.81;5206309;28;20072;-70
2022/04/16 03:44:10;;;;;;;51.97;23.92;;;;;;;5.64;100.00;103000.56;5205869;28;20021;-70
2022/04/16 03:46:41;;;;;;;45.20;23.33;;;;;;;5.60;100.00;102996.34;5205769;28;20044;-70
2022/04/16 03:49:11;;;;;;;51.00;24.02;;;;;;;5.58;100.00;102995.56;5206108;28;20481;-70
2022/04/16 03:51:42;;;;;;;55.00;23.20;;;;;;;5.56;100.00;102996.59;5206639;28;20024;-70
2022/04/16 04:00:00;;;;;;;51.53;23.60;;;;;;;5.46;100.00;103009.53;5199270;28;20029;-71
2022/04/16 04:02:34;;;;;;;55.88;26.13;;;;;;;5.44;100.00;103009.59;5204000;28;20112;-70
2022/04/16 04:05:06;;;;;;;63.10;26.90;;;;;;;5.44;100.00;103006.94;5205341;28;20032;-70
2022/04/16 04:07:36;;;;;;;54.15;24.27;;;;;;;5.46;100.00;103014.84;5205495;28;20387;-69
2022/04/16 04:10:07;;;;;;;51.35;25.77;;;;;;;5.48;100.00;103014.78;5205588;28;20033;-70
2022/04/16 04:12:37;;;;;;;56.25;24.95;;;;;;;5.46;100.00;103022.81;5206242;28;20467;-70
2022/04/16 04:15:09;;;;;;;50.90;23.52;;;;;;;5.44;100.00;103012.28;5205667;28;20097;-71
2022/04/16 04:17:39;;;;;;;49.55;23.75;;;;;;;5.42;100.00;103014.16;5205849;28;20029;-70
2022/04/16 04:20:10;;;;;;;51.67;23.83;;;;;;;5.40;100.00;103017.84;5205085;28;20075;-70
2022/04/16 04:22:40;;;;;;;55.03;25.83;;;;;;;5.37;100.00;103024.19;5205614;28;20462;-70
2022/04/16 04:25:11;;;;;;;55.83;24.85;;;;;;;5.36;100.00;103024.25;5205023;28;20021;-70
2022/04/16 04:27:41;;;;;;;56.22;25.13;;;;;;;5.33;100.00;103025.28;5205453;28;20037;-70
2022/04/16 04:30:12;;;;;;;52.20;24.85;;;;;;;5.31;100.00;103023.63;5205296;28;20025;-70
2022/04/16 04:32:43;;;;;;;49.55;24.92;;;;;;;5.27;100.00;103028.28;5204765;28;20543;-69
2022/04/16 04:35:14;;;;;;;51.63;24.33;;;;;;;5.25;100.00;103026.63;5201256;28;20109;-70
2022/04/16 04:37:45;;;;;;;56.47;25.52;;;;;;;5.24;100.00;103032.88;5204442;28;20029;-70
2022/04/16 04:40:16;;;;;;;51.42;24.73;;;;;;;5.21;100.00;103039.19;5194181;28;20033;-70
2022/04/16 04:42:46;;;;;;;56.67;25.83;;;;;;;5.19;100.00;103041.09;5202613;28;20045;-70
2022/04/16 04:45:17;;;;;;;57.15;27.15;;;;;;;5.16;100.00;103036.78;5204667;28;20035;-70
2022/04/16 04:47:47;;;;;;;58.10;27.10;;;;;;;5.18;100.00;103034.06;5204920;28;20099;-71
2022/04/16 04:50:18;;;;;;;58.85;27.38;;;;;;;5.20;100.00;103032.16;5204651;28;20021;-70
2022/04/16 04:52:48;;;;;;;52.22;26.20;;;;;;;5.17;100.00;103034.97;5204522;28;20022;-70
2022/04/16 04:55:19;;;;;;;59.13;27.05;;;;;;;5.18;100.00;103042.03;5204417;28;20554;-70
2022/04/16 04:57:54;;;;;;;55.80;27.23;;;;;;;5.20;100.00;103048.13;5204895;28;20498;-70
2022/04/16 05:00:24;;;;;;;;;;;;;;;5.22;100.00;103046.28;5196784;28;20048;-70
2022/04/16 05:02:55;;;;;;;62.08;26.33;;;;;;;5.23;100.00;103048.00;5204877;28;20359;-70
2022/04/16 05:05:25;;;;;;;57.15;26.27;;;;;;;5.19;100.00;103046.41;5204170;28;20083;-70
2022/04/16 05:07:56;;;;;;;59.47;27.85;;;;;;;5.19;100.00;103051.75;5204661;28;20066;-71
2022/04/16 05:10:26;;;;;;;62.67;28.25;;;;;;;5.19;100.00;103049.06;5204457;28;20087;-70
2022/04/16 05:12:57;;;;;;;57.45;24.88;;;;;;;5.18;100.00;103050.03;5204680;28;20021;-71
2022/04/16 05:15:29;;;;;;;55.83;26.08;;;;;;;5.15;100.00;103051.03;5204235;28;20027;-71
2022/04/16 05:17:59;;;;;;;60.22;28.73;;;;;;;5.19;100.00;103054.41;5191868;28;20030;-71
2022/04/16 05:20:30;;;;;;;63.67;28.00;;;;;;;5.20;100.00;103046.31;5189597;28;20027;-71
2022/04/16 05:23:00;;;;;;;63.50;29.38;;;;;;;5.23;100.00;103060.44;5195862;28;20486;-70
2022/04/16 05:25:30;;;;;;;65.80;28.90;;;;;;;5.27;100.00;103062.88;5200972;28;20370;-70
2022/04/16 05:28:01;;;;;;;60.40;26.95;;;;;;;5.31;100.00;103071.53;5201084;28;20080;-71
2022/04/16 05:30:38;;;;;;;66.00;29.52;;;;;;;5.33;100.00;103065.22;5200293;28;20096;-70
2022/04/16 05:34:18;;;;;;;65.90;31.15;;;;;;;5.39;100.00;103066.69;5203472;28;20459;-70
2022/04/16 05:35:59;;;;;;;66.57;30.10;;;;;;;5.48;100.00;103074.22;5201473;28;20280;-71
2022/04/16 05:38:30;;;;;;;66.57;30.70;;;;;;;5.54;100.00;103076.56;5201966;28;20050;-71
2022/04/16 05:41:01;;;;;;;69.97;29.98;;;;;;;5.63;100.00;103077.88;5202711;28;20100;-70
2022/04/16 05:43:31;;;;;;;68.72;31.55;;;;;;;5.72;100.00;103088.03;5199231;28;20017;-71
2022/04/16 05:46:02;;;;;;;67.10;30.33;;;;;;;5.81;100.00;103086.69;5205656;28;20423;-71
2022/04/16 05:48:33;;;;;;;66.18;30.23;;;;;;;5.94;100.00;103086.00;5197846;28;20033;-71
2022/04/16 05:51:04;;;;;;;68.47;31.00;;;;;;;6.31;100.00;103094.69;5204262;28;20103;-71
2022/04/16 05:53:34;;;;;;;59.20;28.45;;;;;;;6.88;100.00;103088.88;5211062;28;20485;-71
2022/04/16 05:56:05;;;;;;;50.20;25.10;;;;;;;7.57;100.00;103096.34;5205897;28;20033;-71
2022/04/16 05:58:37;;;;;;;51.08;24.48;;;;;;;8.18;100.00;103095.28;5204919;28;20028;-71
2022/04/16 06:01:08;;;;;;;43.65;22.30;;;;;;;8.63;100.00;103095.16;5203112;28;20204;-70
2022/04/16 06:03:40;;;;;;;43.22;23.20;;;;;;;9.05;100.00;103097.72;5200515;28;20020;-70
2022/04/16 06:06:10;;;;;;;41.97;23.00;;;;;;;9.37;100.00;103099.19;5200561;28;20044;-71
2022/04/16 06:08:41;;;;;;;40.05;21.65;;;;;;;9.63;100.00;103106.31;5200433;28;20025;-70
2022/04/16 06:11:12;;;;;;;40.85;22.83;;;;;;;9.92;100.00;103101.63;5206340;28;20473;-71
2022/04/16 06:13:42;;;;;;;40.25;23.10;;;;;;;10.09;100.00;103101.31;5211515;28;20345;-71
2022/04/16 06:16:13;;;;;;;42.13;22.80;;;;;;;10.14;100.00;103109.03;5204639;28;20475;-71
2022/04/16 06:18:43;;;;;;;37.38;22.83;;;;;;;10.57;100.00;103101.47;5205637;28;20131;-71
2022/04/16 06:21:14;;;;;;;35.15;21.13;;;;;;;10.72;100.00;103102.19;5207124;28;20478;-71
2022/04/16 06:23:44;;;;;;;38.03;21.67;;;;;;;10.84;100.00;103101.28;5202558;28;20026;-71
2022/04/16 06:26:15;;;;;;;37.00;22.00;;;;;;;11.03;100.00;103106.13;5204032;28;20282;-71
2022/04/16 06:28:45;;;;;;;35.65;22.40;;;;;;;11.31;100.00;103101.38;5201534;28;20288;-71
2022/04/16 06:31:15;;;;;;;39.97;21.98;;;;;;;11.29;100.00;103101.47;5202851;28;20013;-72
2022/04/16 06:33:46;;;;;;;38.70;21.90;;;;;;;11.50;100.00;103106.22;5208973;28;20042;-71
2022/04/16 06:36:16;;;;;;;34.28;21.27;;;;;;;11.71;100.00;103104.56;5200032;28;20479;-71
2022/04/16 06:38:47;;;;;;;39.20;23.23;;;;;;;11.97;100.00;103109.78;5211618;28;20433;-71
2022/04/16 06:41:17;;;;;;;33.90;22.15;;;;;;;11.88;100.00;103112.19;5211134;28;20028;-71
2022/04/16 06:43:48;;;;;;;36.53;22.02;;;;;;;12.21;100.00;103105.16;5211354;28;20067;-71
2022/04/16 06:46:18;;;;;;;31.65;21.90;;;;;;;12.14;100.00;103107.44;5208720;28;20017;-71
2022/04/16 06:48:49;;;;;;;33.58;22.48;;;;;;;12.27;100.00;103114.56;5204871;28;20044;-71
2022/04/16 06:51:19;;;;;;;39.45;22.98;;;;;;;12.38;100.00;103112.72;5209312;28;20541;-71
2022/04/16 06:53:50;;;;;;;35.03;22.90;;;;;;;12.37;100.00;103110.16;5211806;28;20115;-71
2022/04/16 06:56:20;;;;;;;36.47;22.63;;;;;;;12.88;100.00;103114.97;5209576;28;20030;-71
2022/04/16 06:58:50;;;;;;;31.85;21.63;;;;;;;13.16;100.00;103100.09;5215284;28;20528;-71
2022/04/16 07:01:21;;;;;;;32.13;21.25;;;;;;;13.21;100.00;103101.44;5200786;28;20473;-71
2022/04/16 07:03:52;;;;;;;37.30;21.83;;;;;;;13.36;100.00;103111.91;5199518;28;20033;-71
2022/04/16 07:06:22;;;;;;;36.25;21.67;;;;;;;13.65;100.00;103110.25;5211795;28;20108;-71
2022/04/16 07:08:53;;;;;;;36.67;21.67;;;;;;;13.54;100.00;103115.72;5211333;28;20061;-72
2022/04/16 07:11:23;;;;;;;33.30;20.23;;;;;;;13.63;100.00;103112.25;5211242;28;20028;-73
2022/04/16 07:13:53;;;;;;;34.15;21.73;;;;;;;13.96;100.00;103113.03;5205659;28;20083;-73
2022/04/16 07:16:24;;;;;;;36.17;22.90;;;;;;;14.04;100.00;103120.44;5212351;28;20051;-73
2022/04/16 07:18:54;;;;;;;33.72;21.42;;;;;;;14.21;100.00;103115.31;5217131;28;20124;-71
2022/04/16 07:21:25;;;;;;;31.75;21.45;;;;;;;14.30;100.00;103115.47;5214563;28;20045;-73
2022/04/16 07:23:55;;;;;;;33.60;22.40;;;;;;;14.27;100.00;103118.44;5207570;28;20111;-74
2022/04/16 07:26:26;;;;;;;31.85;22.23;;;;;;;14.40;100.00;103119.06;5205679;28;20154;-73
2022/04/16 07:28:56;;;;;;;34.08;23.10;;;;;;;14.52;100.00;103115.31;5203706;28;20032;-73
2022/04/16 07:31:27;;;;;;;33.08;21.67;;;;;;;14.68;100.00;103112.94;5216076;28;20471;-73
2022/04/16 07:33:57;;;;;;;29.63;19.92;;;;;;;14.90;100.00;103108.28;5214797;28;20051;-73
2022/04/16 07:36:27;;;;;;;30.25;19.92;;;;;;;14.63;100.00;103109.78;5201593;28;20435;-73
2022/04/16 07:38:58;;;;;;;32.67;21.83;;;;;;;14.75;100.00;103115.94;5205695;28;20513;-73
2022/04/16 07:41:28;;;;;;;30.75;21.33;;;;;;;14.57;100.00;103114.91;5204440;28;20536;-74
2022/04/16 07:44:03;;;;;;;28.77;19.85;;;;;;;14.46;100.00;103113.97;5212324;28;20470;-74
2022/04/16 07:46:34;;;;;;;32.42;20.83;;;;;;;14.95;100.00;103116.81;5212490;28;20037;-74
2022/04/16 07:49:04;;;;;;;35.75;20.65;;;;;;;15.10;100.00;103115.41;5212902;28;20033;-73
2022/04/16 07:51:35;;;;;;;33.78;20.67;;;;;;;15.24;100.00;103122.25;5203895;28;20028;-73
2022/04/16 07:54:05;;;;;;;28.92;19.73;;;;;;;15.24;100.00;103123.09;5214458;28;20026;-73
2022/04/16 07:56:36;;;;;;;31.50;20.13;;;;;;;15.27;100.00;103127.41;5200361;28;20360;-74
2022/04/16 07:59:06;;;;;;;30.48;19.80;;;;;;;15.46;100.00;103122.00;5213776;28;20124;-73
2022/04/16 08:01:37;;;;;;;28.75;18.23;;;;;;;15.54;100.00;103121.25;5199653;28;20045;-73
2022/04/16 08:04:08;;;;;;;28.02;18.15;;;;;;;15.62;100.00;103131.38;5209527;28;20026;-73
2022/04/16 08:06:38;;;;;;;30.17;17.50;;;;;;;15.84;100.00;103122.09;5210358;28;20492;-72
2022/04/16 08:09:09;;;;;;;28.17;18.00;;;;;;;16.08;100.00;103127.03;5203450;28;20390;-73
2022/04/16 08:11:40;;;;;;;28.95;17.85;;;;;;;16.49;100.00;103126.56;5210853;28;20029;-73
2022/04/16 08:14:10;;;;;;;27.65;17.48;;;;;;;16.54;100.00;103129.69;5216993;28;20033;-73
2022/04/16 08:16:41;;;;;;;23.65;15.80;;;;;;;16.73;100.00;103126.06;5213747;28;20044;-74
2022/04/16 08:19:11;;;;;;;25.98;17.15;;;;;;;16.35;100.00;103132.47;5209435;28;20033;-73
2022/04/16 08:21:42;;;;;;;28.33;17.33;;;;;;;16.73;100.00;103134.19;5212680;28;20108;-73
2022/04/16 08:24:13;;;;;;;26.90;18.27;;;;;;;16.72;100.00;103129.78;5210567;28;20415;-73
2022/04/16 08:26:43;;;;;;;29.50;18.90;;;;;;;17.00;100.00;103135.16;5202068;28;20111;-72
2022/04/16 08:29:14;;;;;;;25.15;15.95;;;;;;;17.24;100.00;103129.97;5206831;28;20028;-73
2022/04/16 08:31:44;;;;;;;20.33;13.43;;;;;;;17.26;100.00;103124.38;5205234;28;20025;-72
2022/04/16 08:34:15;;;;;;;21.65;14.73;;;;;;;17.31;100.00;103125.63;5207146;28;20022;-72
2022/04/16 08:36:46;;;;;;;20.63;11.90;;;;;;;17.80;100.00;103128.78;5200201;28;20028;-72
2022/04/16 08:39:16;;;;;;;18.02;11.65;;;;;;;18.05;100.00;103127.06;5202073;28;20487;-72
2022/04/16 08:41:48;;;;;;;15.02;10.45;;;;;;;17.81;93.67;103133.19;5204334;28;20159;-72
2022/04/16 08:44:19;;;;;;;16.20;10.20;;;;;;;17.88;90.03;103140.72;5212029;28;20032;-72
2022/04/16 08:46:50;;;;;;;16.73;11.13;;;;;;;18.05;92.57;103132.50;5206386;28;20037;-72
2022/04/16 08:49:21;;;;;;;15.95;9.82;;;;;;;17.71;82.48;103132.41;5212295;28;20021;-72
2022/04/16 08:51:52;;;;;;;13.27;9.63;;;;;;;17.66;85.30;103145.59;5208555;28;20534;-72
2022/04/16 08:54:22;;;;;;;11.82;8.93;;;;;;;17.35;81.80;103139.75;5210386;28;20090;-72
2022/04/16 08:56:53;;;;;;;16.48;9.57;;;;;;;17.31;86.06;103141.06;5216048;28;20151;-72
2022/04/16 08:59:23;;;;;;;13.43;8.95;;;;;;;17.62;85.06;103146.94;5200659;28;20351;-72
2022/04/16 09:01:54;;;;;;;12.05;8.07;;;;;;;17.90;82.34;103142.25;5200538;28;20502;-72
2022/04/16 09:04:30;;;;;;;13.82;9.05;;;;;;;18.03;80.03;103139.97;5204213;28;20504;-72
2022/04/16 09:07:03;;;;;;;11.00;8.18;;;;;;;18.05;80.92;103137.09;5204170;28;20022;-72
2022/04/16 09:09:34;;;;;;;11.15;7.88;;;;;;;18.03;85.96;103141.84;5206588;28;20033;-72
2022/04/16 09:12:17;;;;;;;16.08;9.63;;;;;;;18.40;84.57;103144.25;5201407;28;20026;-72
2022/04/16 09:14:47;;;;;;;13.85;9.25;;;;;;;17.94;76.49;103138.22;5205431;28;20040;-72
2022/04/16 09:17:18;;;;;;;12.05;7.70;;;;;;;18.15;83.02;103137.00;5217274;28;20020;-72
2022/04/16 09:20:10;;;;;;;7.82;5.50;;;;;;;18.56;70.45;103130.72;5213998;28;20474;-72
2022/04/16 09:22:41;;;;;;;10.57;7.35;;;;;;;18.26;75.40;103128.56;5209768;28;20031;-72
2022/04/16 09:25:16;;;;;;;13.13;8.73;;;;;;;18.59;74.71;103135.00;5202445;28;20076;-72
2022/04/16 09:27:49;;;;;;;12.60;8.45;;;;;;;18.56;74.69;103138.88;5204834;28;20061;-72
2022/04/16 09:30:47;;;;;;;12.57;7.45;;;;;;;18.29;72.09;103130.97;5211431;28;20056;-72
2022/04/16 09:33:18;;;;;;;12.80;7.55;;;;;;;18.72;72.21;103126.41;5207398;28;20032;-72
2022/04/16 09:35:54;;;;;;;12.68;7.28;;;;;;;18.64;69.31;103127.19;5200656;28;20455;-72
2022/04/16 09:38:27;;;;;;;12.52;6.32;;;;;;;18.18;79.36;103126.66;5202642;28;20540;-72
2022/04/16 09:41:04;;;;;;;11.30;7.45;;;;;;;18.68;71.81;103128.63;5208799;28;20151;-72
2022/04/16 09:43:35;;;;;;;9.75;7.18;;;;;;;18.61;72.30;103122.94;5207355;28;20402;-72
2022/04/16 09:46:26;;;;;;;8.65;5.70;;;;;;;18.35;72.08;103128.44;5199303;28;20022;-72
2022/04/16 09:49:16;;;;;;;9.20;6.07;;;;;;;18.29;72.21;103122.81;5200901;28;20364;-72
2022/04/16 09:51:48;;;;;;;9.73;6.72;;;;;;;17.45;68.90;103126.94;5203522;28;20033;-72
2022/04/16 09:54:21;;;;;;;11.80;6.47;;;;;;;17.22;72.49;103125.69;5211219;28;20127;-72
2022/04/16 09:57:00;;;;;;;12.35;8.10;;;;;;;17.71;76.23;103124.25;5209674;28;20029;-72
2022/04/16 09:59:35;;;;;;;9.88;6.43;;;;;;;17.93;69.92;103130.25;5205586;28;20017;-73
2022/04/16 10:02:09;;;;;;;10.13;5.82;;;;;;;17.78;68.85;103124.53;5201099;28;20036;-73
2022/04/16 10:04:39;;;;;;;10.65;5.78;;;;;;;18.02;67.98;103122.00;5201509;28;20022;-72
2022/04/16 10:07:11;;;;;;;11.00;5.95;;;;;;;17.95;68.66;103115.47;5208118;28;20031;-73
2022/04/16 10:09:42;;;;;;;14.73;6.75;;;;;;;18.02;70.70;103111.13;5199792;28;20120;-72
2022/04/16 10:15:19;;;;;;;7.90;5.82;;;;;;;17.07;68.38;103120.84;5209402;28;20052;-72
2022/04/16 10:17:51;;;;;;;8.70;5.32;;;;;;;16.85;69.02;103121.25;5206975;28;20493;-72
2022/04/16 10:20:23;;;;;;;11.15;6.10;;;;;;;16.89;70.18;103117.25;5216474;28;20091;-72
2022/04/16 10:22:56;;;;;;;11.75;6.72;;;;;;;16.51;70.14;103110.16;5211581;28;20031;-72
2022/04/16 10:25:32;;;;;;;10.52;6.75;;;;;;;16.76;71.58;103124.88;5204481;28;20033;-72
2022/04/16 10:28:05;;;;;;;9.90;5.65;;;;;;;17.06;73.39;103110.97;5199426;28;20028;-72
2022/04/16 10:30:37;;;;;;;10.95;6.25;;;;;;;17.07;75.28;103110.00;5206293;28;20522;-72
2022/04/16 10:33:27;;;;;;;10.57;6.20;;;;;;;17.26;71.84;103108.97;5199816;28;20072;-73
2022/04/16 10:36:24;;;;;;;8.48;5.32;;;;;;;17.29;72.25;103124.09;5201514;28;20076;-72
2022/04/16 10:38:54;;;;;;;;;;;;;;;17.27;69.45;103113.41;5207013;28;20044;-72
2022/04/16 10:41:26;;;;;;;12.07;7.72;;;;;;;16.98;70.28;103118.19;5202240;28;19912;-72
2022/04/16 10:44:01;;;;;;;11.77;6.93;;;;;;;17.09;71.33;103102.53;5205237;28;20027;-72
2022/04/16 10:46:49;;;;;;;12.75;7.72;;;;;;;17.20;75.95;103108.75;5199799;28;20032;-73
2022/04/16 10:49:23;;;;;;;12.32;6.68;;;;;;;17.26;69.11;103106.25;5211370;28;20029;-72
2022/04/16 10:51:55;;;;;;;9.82;6.05;;;;;;;17.03;67.80;103102.31;5200186;28;20025;-72
2022/04/16 10:54:30;;;;;;;11.68;7.68;;;;;;;17.28;72.79;103096.13;5198382;28;20052;-72
2022/04/16 10:57:02;;;;;;;11.48;6.75;;;;;;;17.48;76.62;103099.50;5199543;28;20029;-72
2022/04/16 10:59:56;;;;;;;9.55;5.75;;;;;;;17.71;72.24;103096.28;5213136;28;20264;-72
2022/04/16 11:02:28;;;;;;;9.80;6.40;;;;;;;17.85;68.86;103093.84;5200196;28;20360;-72
2022/04/16 11:05:00;;;;;;;12.57;7.60;;;;;;;17.80;70.71;103093.47;5199032;28;20481;-72
2022/04/16 11:10:23;;;;;;;12.65;8.05;;;;;;;17.17;72.32;103088.22;5207503;28;20202;-72
2022/04/16 11:12:54;;;;;;;12.40;8.07;;;;;;;17.18;72.17;103086.38;5206712;28;20567;-72
2022/04/16 11:15:26;;;;;;;14.68;7.72;;;;;;;17.37;73.30;103085.31;5199033;28;20032;-72
2022/04/16 11:17:58;;;;;;;13.23;8.02;;;;;;;17.64;72.07;103085.19;5198902;28;20029;-72
2022/04/16 11:20:28;;;;;;;12.05;7.15;;;;;;;17.79;71.41;103085.50;5200294;28;20025;-73
2022/04/16 11:22:59;;;;;;;12.85;7.32;;;;;;;17.86;73.30;103083.84;5198910;28;20017;-72
2022/04/16 11:34:14;;;;;;;11.85;7.43;;;;;;;17.86;73.27;103081.13;5209498;28;20037;-72
2022/04/16 11:34:21;;;;;;;13.98;7.43;;;;;;;17.15;64.84;103071.22;5207739;28;20029;-72
2022/04/16 11:36:52;;;;;;;13.25;7.65;;;;;;;17.27;68.30;103077.25;5199862;28;20025;-72
2022/04/16 11:39:25;;;;;;;14.80;7.70;;;;;;;17.23;69.43;103065.03;5206907;28;20463;-72
2022/04/16 11:41:58;;;;;;;18.30;8.95;;;;;;;17.20;69.94;103074.34;5201948;28;20043;-72
2022/04/16 11:44:30;;;;;;;18.17;8.88;;;;;;;17.05;69.29;103070.47;5197933;28;20140;-72
2022/04/16 11:47:02;;;;;;;16.25;8.32;;;;;;;17.16;71.56;103061.22;5204892;28;20033;-72
2022/04/16 11:49:34;;;;;;;13.63;8.27;;;;;;;17.71;76.79;103055.56;5199634;28;20514;-73
2022/04/16 11:52:06;;;;;;;13.85;8.63;;;;;;;17.70;69.76;103057.41;5196617;28;20029;-72
2022/04/16 11:54:38;;;;;;;12.82;8.05;;;;;;;17.72;71.14;103059.97;5203982;28;20026;-72
2022/04/16 11:57:19;;;;;;;13.00;7.90;;;;;;;18.06;74.55;103058.16;5210716;28;20124;-72